createdAt,value
2023-05-05T00:01:07.952Z,29.90
2023-05-05T00:03:35.667Z,26.65
2023-05-05T00:06:02.471Z,28.20
2023-05-05T00:08:28.959Z,23.33
2023-05-05T00:10:56.607Z,25.85
2023-05-05T00:13:23.482Z,28.27
2023-05-05T00:15:50.563Z,31.40
2023-05-05T00:18:17.865Z,34.00
2023-05-05T00:20:46.786Z,36.80
2023-05-05T00:23:14.043Z,31.02
2023-05-05T00:25:40.818Z,33.40
2023-05-05T00:28:07.236Z,36.67
2023-05-05T00:30:34.397Z,33.45
2023-05-05T00:33:01.731Z,36.40
2023-05-05T00:35:28.321Z,38.80
2023-05-05T00:37:54.978Z,41.92
2023-05-05T00:40:22.722Z,43.22
2023-05-05T00:42:52.489Z,45.58
2023-05-05T00:45:19.633Z,45.75
2023-05-05T00:47:50.348Z,50.65
2023-05-05T00:50:23.996Z,44.25
2023-05-05T00:52:50.973Z,46.33
2023-05-05T00:55:17.486Z,48.40
2023-05-05T00:57:44.406Z,43.83
2023-05-05T01:00:11.148Z,38.05
2023-05-05T01:02:40.029Z,48.85
2023-05-05T01:05:07.242Z,37.22
2023-05-05T01:07:41.940Z,35.10
2023-05-05T01:10:19.592Z,37.40
2023-05-05T01:12:46.941Z,33.78
2023-05-05T01:15:33.867Z,32.55
2023-05-05T01:18:05.695Z,24.17
2023-05-05T01:20:36.220Z,29.27
2023-05-05T01:23:06.091Z,35.53
2023-05-05T01:25:44.848Z,32.53
2023-05-05T01:28:19.238Z,35.05
2023-05-05T01:30:54.732Z,36.45
2023-05-05T01:33:24.677Z,37.95
2023-05-05T01:35:53.577Z,34.38
2023-05-05T01:38:22.904Z,36.10
2023-05-05T01:40:51.595Z,34.90
2023-05-05T01:43:20.148Z,36.60
2023-05-05T01:45:47.756Z,34.13
2023-05-05T01:48:16.948Z,34.53
2023-05-05T01:50:43.960Z,33.05
2023-05-05T01:53:11.601Z,30.15
2023-05-05T01:55:39.302Z,31.58
2023-05-05T01:58:07.153Z,36.42
2023-05-05T02:00:34.535Z,33.60
2023-05-05T02:03:01.182Z,31.70
2023-05-05T02:05:28.118Z,35.50
2023-05-05T02:07:56.864Z,35.65
2023-05-05T02:10:23.671Z,39.80
2023-05-05T02:12:51.131Z,33.45
2023-05-05T02:15:18.188Z,35.53
2023-05-05T02:17:45.316Z,38.08
2023-05-05T02:20:12.817Z,33.72
2023-05-05T02:22:39.569Z,33.85
2023-05-05T02:25:06.599Z,36.63
2023-05-05T02:27:34.954Z,28.83
2023-05-05T02:30:09.264Z,36.50
2023-05-05T02:32:40.499Z,22.13
2023-05-05T02:35:39.513Z,35.85
2023-05-05T02:38:07.296Z,30.92
2023-05-05T02:40:34.590Z,24.15
2023-05-05T02:43:03.719Z,32.85
2023-05-05T02:45:30.226Z,31.42
2023-05-05T02:47:56.640Z,32.20
2023-05-05T02:50:23.148Z,32.75
2023-05-05T02:52:49.470Z,34.20
2023-05-05T02:55:16.579Z,31.70
2023-05-05T02:58:04.791Z,32.78
2023-05-05T03:00:53.920Z,33.30
2023-05-05T03:03:30.879Z,32.17
2023-05-05T03:06:00.315Z,28.83
2023-05-05T03:08:28.182Z,30.65
2023-05-05T03:11:05.144Z,32.75
2023-05-05T03:13:32.186Z,29.85
2023-05-05T03:15:59.719Z,39.30
2023-05-05T03:18:27.191Z,34.03
2023-05-05T03:20:54.015Z,37.75
2023-05-05T03:23:22.762Z,35.20
2023-05-05T03:25:49.843Z,32.75
2023-05-05T03:28:16.385Z,37.00
2023-05-05T03:30:42.952Z,32.38
2023-05-05T03:33:10.420Z,34.33
2023-05-05T03:35:36.895Z,34.80
2023-05-05T03:38:03.324Z,40.88
2023-05-05T03:40:40.311Z,36.20
2023-05-05T03:43:08.049Z,36.85
2023-05-05T03:45:34.564Z,41.78
2023-05-05T03:48:01.281Z,51.90
2023-05-05T03:50:27.810Z,48.42
2023-05-05T03:52:54.265Z,53.10
2023-05-05T03:55:20.862Z,76.57
2023-05-05T03:57:47.257Z,69.13
2023-05-05T04:00:14.222Z,66.60
2023-05-05T04:02:41.093Z,72.50
2023-05-05T04:05:07.645Z,71.50
2023-05-05T04:07:34.053Z,102.57
2023-05-05T04:10:00.408Z,111.25
2023-05-05T04:12:26.743Z,103.43
2023-05-05T04:14:53.182Z,102.18
2023-05-05T04:17:19.724Z,103.43
2023-05-05T04:19:46.206Z,106.93
2023-05-05T04:22:12.729Z,111.70
2023-05-05T04:24:39.323Z,98.53
2023-05-05T04:27:05.879Z,110.07
2023-05-05T04:29:32.284Z,120.00
2023-05-05T04:31:58.616Z,129.48
2023-05-05T04:34:25.028Z,132.57
2023-05-05T04:36:51.436Z,117.55
2023-05-05T04:39:17.794Z,119.95
2023-05-05T04:41:44.106Z,148.07
2023-05-05T04:44:10.487Z,148.75
2023-05-05T04:46:36.874Z,145.00
2023-05-05T04:49:05.151Z,134.52
2023-05-05T04:51:32.252Z,144.80
2023-05-05T04:54:00.061Z,135.70
2023-05-05T04:56:26.537Z,151.30
2023-05-05T04:58:53.016Z,144.20
2023-05-05T05:01:19.833Z,152.98
2023-05-05T05:03:46.916Z,161.20
2023-05-05T05:06:13.351Z,142.68
2023-05-05T05:08:39.695Z,159.10
2023-05-05T05:11:06.471Z,164.50
2023-05-05T05:13:32.789Z,172.98
2023-05-05T05:15:59.309Z,16.45
2023-05-05T05:18:25.672Z,126.57
2023-05-05T05:20:52.033Z,19.25
2023-05-05T05:23:18.376Z,16.27
2023-05-05T05:25:44.753Z,17.67
2023-05-05T05:28:11.234Z,16.10
2023-05-05T05:30:37.546Z,22.40
2023-05-05T05:33:04.098Z,21.02
2023-05-05T05:35:31.502Z,20.65
2023-05-05T05:37:57.797Z,177.15
2023-05-05T05:40:24.121Z,172.85
2023-05-05T05:42:50.464Z,81.10
2023-05-05T05:45:16.844Z,80.75
2023-05-05T05:47:43.228Z,82.35
2023-05-05T05:50:10.187Z,80.50
2023-05-05T05:52:36.871Z,136.25
2023-05-05T05:55:03.310Z,149.75
2023-05-05T05:57:29.611Z,136.60
2023-05-05T05:59:56.013Z,136.93
2023-05-05T06:02:22.392Z,105.57
2023-05-05T06:04:48.846Z,91.82
2023-05-05T06:07:15.153Z,40.35
2023-05-05T06:09:41.562Z,62.05
2023-05-05T06:12:07.901Z,78.55
2023-05-05T06:14:34.327Z,74.15
2023-05-05T06:17:00.676Z,100.30
2023-05-05T06:19:27.030Z,83.68
2023-05-05T06:21:53.422Z,79.13
2023-05-05T06:24:19.773Z,45.35
2023-05-05T06:26:46.097Z,35.28
2023-05-05T06:29:12.569Z,7.25
2023-05-05T06:31:38.934Z,26.20
2023-05-05T06:34:05.315Z,54.92
2023-05-05T06:36:32.355Z,32.50
2023-05-05T06:38:58.745Z,48.17
2023-05-05T06:41:25.164Z,49.75
2023-05-05T06:43:51.503Z,49.35
2023-05-05T06:46:17.916Z,45.22
2023-05-05T06:48:44.418Z,51.30
2023-05-05T06:51:10.832Z,59.30
2023-05-05T06:53:37.140Z,70.72
2023-05-05T06:56:03.528Z,79.03
2023-05-05T06:58:29.920Z,79.72
2023-05-05T07:00:56.281Z,82.10
2023-05-05T07:03:22.754Z,95.65
2023-05-05T07:05:49.246Z,76.22
2023-05-05T07:08:15.774Z,89.00
2023-05-05T07:10:42.240Z,86.35
2023-05-05T07:13:08.691Z,84.07
2023-05-05T07:15:35.203Z,59.65
2023-05-05T07:18:01.609Z,34.17
2023-05-05T07:20:28.192Z,31.30
2023-05-05T07:22:54.601Z,30.27
2023-05-05T07:25:21.091Z,42.55
2023-05-05T07:27:47.458Z,36.53
2023-05-05T07:30:17.301Z,48.95
2023-05-05T07:32:44.690Z,40.20
2023-05-05T07:35:11.320Z,40.83
2023-05-05T07:37:37.658Z,31.77
2023-05-05T07:40:04.156Z,47.03
2023-05-05T07:42:30.500Z,26.92
2023-05-05T07:44:56.857Z,23.17
2023-05-05T07:47:23.194Z,42.28
2023-05-05T07:49:49.560Z,42.65
2023-05-05T07:52:15.972Z,51.92
2023-05-05T07:54:42.452Z,46.72
2023-05-05T07:57:08.830Z,47.22
2023-05-05T07:59:35.351Z,27.48
2023-05-05T08:02:01.740Z,29.70
2023-05-05T08:04:28.135Z,24.30
2023-05-05T08:06:54.505Z,27.67
2023-05-05T08:09:20.832Z,4.68
2023-05-05T08:11:47.143Z,4.32
2023-05-05T08:14:13.553Z,24.92
2023-05-05T08:16:39.893Z,25.00
2023-05-05T08:19:21.157Z,22.65
2023-05-05T08:21:54.453Z,24.23
2023-05-05T08:24:21.060Z,23.88
2023-05-05T08:26:47.447Z,25.88
2023-05-05T08:29:13.786Z,20.80
2023-05-05T08:31:40.232Z,22.88
2023-05-05T08:34:06.837Z,21.38
2023-05-05T08:36:33.444Z,19.65
2023-05-05T08:39:00.055Z,20.42
2023-05-05T08:41:26.681Z,19.00
2023-05-05T08:43:53.173Z,17.33
2023-05-05T08:46:19.912Z,19.27
2023-05-05T08:48:48.430Z,16.45
2023-05-05T08:51:21.103Z,21.63
2023-05-05T08:53:56.355Z,11.68
2023-05-05T08:56:24.111Z,9.75
2023-05-05T08:58:51.270Z,9.48
2023-05-05T09:01:18.237Z,11.93
2023-05-05T09:03:45.378Z,11.45
2023-05-05T09:06:11.796Z,11.32
2023-05-05T09:08:38.480Z,9.73
2023-05-05T09:11:05.006Z,9.45
2023-05-05T09:13:31.859Z,10.02
2023-05-05T09:15:58.729Z,10.02
2023-05-05T09:18:25.396Z,8.93
2023-05-05T09:20:51.907Z,10.27
2023-05-05T09:23:19.610Z,12.10
2023-05-05T09:25:47.025Z,11.05
2023-05-05T09:28:13.410Z,10.82
2023-05-05T09:30:40.817Z,11.63
2023-05-05T09:33:07.303Z,11.07
2023-05-05T09:35:47.991Z,11.80
2023-05-05T09:38:14.352Z,9.35
2023-05-05T09:40:51.150Z,10.15
2023-05-05T09:43:18.448Z,10.23
2023-05-05T09:45:44.860Z,6.35
2023-05-05T09:48:27.978Z,9.63
2023-05-05T09:50:55.090Z,11.15
2023-05-05T09:53:21.675Z,11.48
2023-05-05T09:55:57.730Z,11.63
2023-05-05T09:58:25.176Z,14.00
2023-05-05T10:00:52.115Z,12.68
2023-05-05T10:03:18.941Z,14.90
2023-05-05T10:05:52.085Z,14.18
2023-05-05T10:08:22.553Z,13.60
2023-05-05T10:10:48.881Z,13.77
2023-05-05T10:13:15.561Z,14.27
2023-05-05T10:15:44.028Z,14.25
2023-05-05T10:18:10.527Z,17.00
2023-05-05T10:20:38.000Z,17.65
2023-05-05T10:23:06.703Z,32.88
2023-05-05T10:25:36.184Z,29.65
2023-05-05T10:28:06.067Z,35.00
2023-05-05T10:30:35.330Z,32.33
2023-05-05T10:35:41.673Z,34.70
2023-05-05T10:38:12.575Z,40.60
2023-05-05T10:40:45.775Z,26.70
2023-05-05T10:43:13.918Z,34.30
2023-05-05T10:45:40.929Z,32.90
2023-05-05T10:48:11.638Z,42.88
2023-05-05T10:51:03.180Z,3.00
2023-05-05T10:53:32.607Z,4.05
2023-05-05T10:56:17.503Z,4.72
2023-05-05T10:58:55.480Z,4.57
2023-05-05T11:01:33.105Z,4.40
2023-05-05T11:04:18.230Z,6.28
2023-05-05T11:07:03.545Z,123.57
2023-05-05T11:09:29.988Z,128.77
2023-05-05T11:12:03.857Z,134.80
2023-05-05T11:14:30.374Z,122.80
2023-05-05T11:16:56.905Z,117.13
2023-05-05T11:19:41.877Z,129.43
2023-05-05T11:22:08.484Z,133.75
2023-05-05T11:24:36.297Z,135.57
2023-05-05T11:27:03.434Z,133.95
2023-05-05T11:29:53.123Z,110.55
2023-05-05T11:32:19.959Z,6.82
2023-05-05T11:34:49.866Z,6.65
2023-05-05T11:37:16.719Z,6.75
2023-05-05T11:39:53.426Z,4.70
2023-05-05T11:42:19.790Z,62.63
2023-05-05T11:44:46.182Z,98.28
2023-05-05T11:47:12.501Z,96.72
2023-05-05T11:49:39.555Z,91.13
2023-05-05T11:52:06.587Z,97.30
2023-05-05T11:54:34.319Z,127.70
2023-05-05T11:57:04.971Z,143.10
2023-05-05T11:59:31.809Z,133.48
2023-05-05T12:01:58.463Z,139.82
2023-05-05T12:04:25.061Z,128.30
2023-05-05T12:06:51.495Z,112.70
2023-05-05T12:09:18.946Z,134.90
2023-05-05T12:11:48.972Z,201.75
2023-05-05T12:14:15.331Z,201.73
2023-05-05T12:16:53.500Z,215.35
2023-05-05T12:19:19.806Z,224.95
2023-05-05T12:21:46.142Z,210.32
2023-05-05T12:24:16.235Z,192.60
2023-05-05T12:26:42.642Z,195.60
2023-05-05T12:29:09.015Z,175.77
2023-05-05T12:31:38.988Z,192.30
2023-05-05T12:34:06.467Z,180.70
2023-05-05T12:36:34.451Z,172.23
2023-05-05T12:39:00.972Z,174.88
2023-05-05T12:41:27.589Z,162.13
2023-05-05T12:43:57.678Z,163.57
2023-05-05T12:46:24.160Z,178.70
2023-05-05T12:49:01.461Z,166.77
2023-05-05T12:51:28.087Z,193.73
2023-05-05T12:54:07.626Z,175.60
2023-05-05T12:56:38.176Z,183.30
2023-05-05T12:59:06.085Z,188.60
2023-05-05T13:01:32.611Z,196.95
2023-05-05T13:04:08.142Z,177.98
2023-05-05T13:06:35.975Z,195.35
2023-05-05T13:09:02.436Z,185.73
2023-05-05T13:11:29.396Z,205.82
2023-05-05T13:13:56.472Z,191.82
2023-05-05T13:16:22.919Z,188.93
2023-05-05T13:18:49.880Z,190.65
2023-05-05T13:21:16.729Z,191.43
2023-05-05T13:23:44.232Z,209.40
2023-05-05T13:26:10.997Z,210.13
2023-05-05T13:28:37.332Z,207.57
2023-05-05T13:31:03.753Z,201.85
2023-05-05T13:33:32.951Z,203.95
2023-05-05T13:35:59.267Z,184.27
2023-05-05T13:38:25.576Z,195.32
2023-05-05T13:40:51.963Z,200.60
2023-05-05T13:43:19.529Z,234.15
2023-05-05T13:45:46.401Z,202.50
2023-05-05T13:48:12.752Z,208.40
2023-05-05T13:50:39.193Z,65.90
2023-05-05T13:53:05.608Z,19.42
2023-05-05T13:55:32.001Z,22.98
2023-05-05T13:57:59.447Z,21.58
2023-05-05T14:00:27.703Z,13.27
2023-05-05T14:02:54.256Z,37.90
2023-05-05T14:05:21.302Z,34.13
2023-05-05T14:07:47.666Z,44.55
2023-05-05T14:10:14.038Z,36.53
2023-05-05T14:12:40.506Z,30.08
2023-05-05T14:15:07.469Z,37.08
2023-05-05T14:17:34.194Z,41.25
2023-05-05T14:20:00.602Z,33.28
2023-05-05T14:22:27.465Z,43.88
2023-05-05T14:24:53.810Z,45.58
2023-05-05T14:27:20.193Z,38.42
2023-05-05T14:29:46.513Z,43.03
2023-05-05T14:32:12.955Z,25.35
2023-05-05T14:34:39.301Z,29.95
2023-05-05T14:37:05.719Z,22.73
2023-05-05T14:39:32.084Z,21.27
2023-05-05T14:41:58.395Z,6.43
2023-05-05T14:44:24.788Z,5.55
2023-05-05T14:46:51.409Z,7.20
2023-05-05T14:49:17.798Z,6.13
2023-05-05T14:51:44.157Z,6.65
2023-05-05T14:54:24.208Z,4.45
2023-05-05T14:56:53.500Z,4.82
2023-05-05T14:59:19.831Z,5.80
2023-05-05T15:01:46.266Z,5.10
2023-05-05T15:04:12.611Z,5.15
2023-05-05T15:06:39.118Z,5.97
2023-05-05T15:09:05.637Z,6.28
2023-05-05T15:11:31.954Z,5.00
2023-05-05T15:13:58.289Z,4.40
2023-05-05T15:16:24.811Z,5.22
2023-05-05T15:18:51.454Z,4.75
2023-05-05T15:21:17.807Z,4.50
2023-05-05T15:23:44.278Z,5.28
2023-05-05T15:26:10.699Z,5.35
2023-05-05T15:28:37.718Z,7.50
2023-05-05T15:31:05.916Z,7.57
2023-05-05T15:33:32.368Z,6.22
2023-05-05T15:35:58.781Z,6.30
2023-05-05T15:38:25.599Z,7.78
2023-05-05T15:40:52.093Z,4.90
2023-05-05T15:43:18.453Z,7.00
2023-05-05T15:45:44.893Z,6.03
2023-05-05T15:48:11.343Z,5.93
2023-05-05T15:50:37.821Z,8.48
2023-05-05T15:53:04.184Z,7.25
2023-05-05T15:55:30.569Z,5.72
2023-05-05T15:57:56.980Z,8.20
2023-05-05T16:00:23.498Z,7.63
2023-05-05T16:02:49.973Z,5.38
2023-05-05T16:05:16.426Z,6.20
2023-05-05T16:07:42.742Z,8.23
2023-05-05T16:10:09.913Z,5.80
2023-05-05T16:12:36.382Z,6.45
2023-05-05T16:15:02.815Z,6.65
2023-05-05T16:17:29.482Z,5.75
2023-05-05T16:19:55.938Z,7.38
2023-05-05T16:22:22.267Z,229.15
2023-05-05T16:24:48.655Z,166.73
2023-05-05T16:27:15.008Z,133.45
2023-05-05T16:29:41.558Z,126.90
2023-05-05T16:32:07.974Z,124.45
2023-05-05T16:34:34.637Z,15.00
2023-05-05T16:37:01.225Z,12.25
2023-05-05T16:39:27.657Z,16.25
2023-05-05T16:41:54.322Z,17.73
2023-05-05T16:44:20.762Z,15.43
2023-05-05T16:46:47.162Z,10.35
2023-05-05T16:49:13.518Z,13.30
2023-05-05T16:51:39.930Z,16.67
2023-05-05T16:54:06.456Z,12.15
2023-05-05T16:56:32.833Z,10.00
2023-05-05T16:58:59.184Z,8.70
2023-05-05T17:01:25.663Z,13.80
2023-05-05T17:03:52.018Z,10.38
2023-05-05T17:06:18.445Z,12.68
2023-05-05T17:08:44.804Z,16.88
2023-05-05T17:11:11.929Z,18.13
2023-05-05T17:13:38.346Z,13.15
2023-05-05T17:16:04.883Z,17.25
2023-05-05T17:18:31.518Z,12.48
2023-05-05T17:20:57.893Z,4.20
2023-05-05T17:23:24.250Z,57.83
2023-05-05T17:25:50.895Z,83.25
2023-05-05T17:28:17.582Z,85.85
2023-05-05T17:30:44.089Z,88.47
2023-05-05T17:33:10.736Z,209.98
2023-05-05T17:35:37.477Z,258.25
2023-05-05T17:38:03.885Z,246.02
2023-05-05T17:40:32.957Z,237.80
2023-05-05T17:42:59.354Z,240.23
2023-05-05T17:45:25.688Z,233.07
2023-05-05T17:47:52.044Z,225.05
2023-05-05T17:50:18.501Z,232.73
2023-05-05T17:52:46.443Z,229.68
2023-05-05T17:55:12.993Z,222.85
2023-05-05T17:57:39.672Z,212.82
2023-05-05T18:00:06.561Z,27.63
2023-05-05T18:02:34.983Z,61.90
2023-05-05T18:05:01.686Z,77.35
2023-05-05T18:07:28.454Z,23.10
2023-05-05T18:09:55.031Z,28.20
2023-05-05T18:12:21.977Z,26.75
2023-05-05T18:14:48.465Z,27.77
2023-05-05T18:17:14.863Z,26.80
2023-05-05T18:19:46.657Z,31.50
2023-05-05T18:22:19.498Z,29.27
2023-05-05T18:24:47.085Z,21.98
2023-05-05T18:27:13.420Z,22.50
2023-05-05T18:29:39.909Z,22.77
2023-05-05T18:32:06.443Z,22.17
2023-05-05T18:34:33.307Z,29.08
2023-05-05T18:37:00.544Z,21.65
2023-05-05T18:39:27.324Z,32.67
2023-05-05T18:41:54.026Z,33.53
2023-05-05T18:44:20.541Z,31.95
2023-05-05T18:46:48.674Z,28.77
2023-05-05T18:49:15.296Z,20.23
2023-05-05T18:51:42.176Z,23.58
2023-05-05T18:54:08.641Z,20.48
2023-05-05T18:56:35.209Z,20.02
2023-05-05T18:59:02.039Z,16.42
2023-05-05T19:01:30.030Z,18.45
2023-05-05T19:03:56.544Z,23.05
2023-05-05T19:06:23.318Z,21.10
2023-05-05T19:08:49.832Z,17.38
2023-05-05T19:11:18.539Z,20.40
2023-05-05T19:13:45.681Z,17.30
2023-05-05T19:16:12.239Z,19.75
2023-05-05T19:18:40.430Z,18.33
2023-05-05T19:21:08.447Z,15.90
2023-05-05T19:23:36.160Z,23.70
2023-05-05T19:26:03.740Z,9.80
2023-05-05T19:28:30.174Z,7.40
2023-05-05T19:30:56.772Z,218.02
2023-05-05T19:33:23.447Z,226.32
2023-05-05T19:35:50.094Z,241.02
2023-05-05T19:38:16.846Z,231.77
2023-05-05T19:40:43.816Z,245.05
2023-05-05T19:43:10.460Z,245.95
2023-05-05T19:45:37.029Z,246.48
2023-05-05T19:48:03.547Z,242.40
2023-05-05T19:50:30.928Z,162.02
2023-05-05T19:52:59.043Z,181.18
2023-05-05T19:55:28.292Z,166.32
2023-05-05T19:57:54.659Z,175.93
2023-05-05T20:00:21.177Z,179.95
2023-05-05T20:02:49.519Z,197.02
2023-05-05T20:05:17.390Z,169.88
2023-05-05T20:07:45.690Z,157.50
2023-05-05T20:10:14.071Z,157.10
2023-05-05T20:12:49.008Z,187.93
2023-05-05T20:15:19.219Z,177.90
2023-05-05T20:17:46.964Z,170.25
2023-05-05T20:20:20.540Z,191.68
2023-05-05T20:22:48.868Z,158.88
2023-05-05T20:25:16.347Z,182.63
2023-05-05T20:27:46.329Z,164.60
2023-05-05T20:30:13.338Z,193.13
2023-05-05T20:32:41.445Z,174.80
2023-05-05T20:35:08.248Z,189.50
2023-05-05T20:37:35.215Z,168.02
2023-05-05T20:40:01.707Z,157.93
2023-05-05T20:42:29.973Z,162.95
2023-05-05T20:44:57.068Z,163.30
2023-05-05T20:47:24.258Z,150.82
2023-05-05T20:49:54.551Z,149.48
2023-05-05T20:52:21.192Z,146.90
2023-05-05T20:54:47.662Z,146.57
2023-05-05T20:57:14.083Z,154.50
2023-05-05T20:59:40.482Z,160.38
2023-05-05T21:02:07.258Z,169.27
2023-05-05T21:04:33.712Z,175.25
2023-05-05T21:07:00.278Z,175.82
2023-05-05T21:09:26.865Z,168.38
2023-05-05T21:11:53.355Z,176.82
2023-05-05T21:14:19.943Z,160.48
2023-05-05T21:16:46.610Z,164.40
2023-05-05T21:19:13.003Z,154.60
2023-05-05T21:21:39.499Z,146.80
2023-05-05T21:24:07.910Z,177.88
2023-05-05T21:26:34.923Z,150.98
2023-05-05T21:29:01.565Z,183.35
2023-05-05T21:31:28.159Z,160.55
2023-05-05T21:33:54.740Z,155.30
2023-05-05T21:36:21.302Z,163.55
2023-05-05T21:38:47.739Z,152.65
2023-05-05T21:41:14.176Z,277.17
2023-05-05T21:43:40.643Z,180.13
2023-05-05T21:46:07.080Z,166.93
2023-05-05T21:48:33.767Z,164.30
2023-05-05T21:51:01.324Z,166.45
2023-05-05T21:53:27.692Z,159.98
2023-05-05T21:55:54.481Z,168.82
2023-05-05T21:58:20.845Z,160.23
2023-05-05T22:00:51.309Z,193.57
2023-05-05T22:03:18.069Z,165.05
2023-05-05T22:05:44.612Z,188.25
2023-05-05T22:08:14.215Z,198.43
2023-05-05T22:10:40.616Z,184.40
2023-05-05T22:13:07.146Z,175.30
2023-05-05T22:15:45.436Z,174.18
2023-05-05T22:18:13.420Z,182.52
2023-05-05T22:20:40.628Z,172.52
2023-05-05T22:23:07.507Z,170.00
2023-05-05T22:25:33.859Z,192.13
2023-05-05T22:28:02.147Z,198.27
2023-05-05T22:30:28.622Z,173.13
2023-05-05T22:32:55.295Z,182.05
2023-05-05T22:35:21.821Z,175.68
2023-05-05T22:37:48.262Z,195.43
2023-05-05T22:40:17.623Z,176.20
2023-05-05T22:42:44.238Z,194.48
2023-05-05T22:45:11.020Z,192.30
2023-05-05T22:47:37.711Z,181.70
2023-05-05T22:50:04.520Z,188.93
2023-05-05T22:52:30.885Z,198.55
2023-05-05T22:54:57.407Z,176.50
2023-05-05T22:57:24.122Z,212.13
2023-05-05T22:59:50.683Z,196.75
2023-05-05T23:02:17.087Z,196.70
2023-05-05T23:04:44.969Z,178.13
2023-05-05T23:07:12.459Z,172.82
2023-05-05T23:09:39.072Z,198.05
2023-05-05T23:12:05.577Z,180.23
2023-05-05T23:14:32.052Z,201.77
2023-05-05T23:16:58.679Z,185.55
2023-05-05T23:19:27.561Z,185.52
2023-05-05T23:21:54.238Z,184.10
2023-05-05T23:24:21.547Z,184.43
2023-05-05T23:26:48.097Z,191.18
2023-05-05T23:29:14.464Z,189.88
2023-05-05T23:31:40.886Z,193.98
2023-05-05T23:34:07.331Z,201.00
2023-05-05T23:36:39.406Z,201.60
2023-05-05T23:39:05.822Z,177.30
2023-05-05T23:41:32.200Z,175.43
2023-05-05T23:43:58.580Z,178.48
2023-05-05T23:46:25.016Z,187.98
2023-05-05T23:48:54.589Z,201.50
2023-05-05T23:51:21.003Z,179.55
2023-05-05T23:53:49.630Z,207.90
2023-05-05T23:56:16.123Z,203.35
2023-05-05T23:58:42.539Z,201.40
